sensor_id;sensor_type;location;lat;lon;timestamp;pressure;altitude;pressure_sealevel;temperature;humidity
23619;BME280;18207;32.078;34.818;2023-12-14T00:01:41;101487.94;;;25.14;44.22
23619;BME280;18207;32.078;34.818;2023-12-14T00:04:13;101489.09;;;25.13;44.15
23619;BME280;18207;32.078;34.818;2023-12-14T00:06:58;101482.19;;;25.11;44.27
23619;BME280;18207;32.078;34.818;2023-12-14T00:09:42;101486.00;;;25.06;44.00
23619;BME280;18207;32.078;34.818;2023-12-14T00:12:22;101491.97;;;25.05;44.24
23619;BME280;18207;32.078;34.818;2023-12-14T00:14:56;101491.50;;;25.03;44.38
23619;BME280;18207;32.078;34.818;2023-12-14T00:17:31;101491.03;;;25.01;44.44
23619;BME280;18207;32.078;34.818;2023-12-14T00:20:09;101490.56;;;24.99;44.42
23619;BME280;18207;32.078;34.818;2023-12-14T00:22:43;101497.69;;;24.97;44.48
23619;BME280;18207;32.078;34.818;2023-12-14T00:25:16;101483.50;;;24.93;44.24
23619;BME280;18207;32.078;34.818;2023-12-14T00:27:51;101487.47;;;24.92;44.41
23619;BME280;18207;32.078;34.818;2023-12-14T00:30:26;101491.81;;;24.90;44.42
23619;BME280;18207;32.078;34.818;2023-12-14T00:33:02;101494.13;;;24.88;44.23
23619;BME280;18207;32.078;34.818;2023-12-14T00:35:40;101489.22;;;24.85;44.46
23619;BME280;18207;32.078;34.818;2023-12-14T00:38:19;101490.41;;;24.84;44.59
23619;BME280;18207;32.078;34.818;2023-12-14T00:40:56;101492.38;;;24.83;44.54
23619;BME280;18207;32.078;34.818;2023-12-14T00:43:34;101483.94;;;24.83;44.65
23619;BME280;18207;32.078;34.818;2023-12-14T00:46:13;101480.66;;;24.81;44.64
23619;BME280;18207;32.078;34.818;2023-12-14T00:48:48;101487.09;;;24.82;44.60
23619;BME280;18207;32.078;34.818;2023-12-14T00:51:22;101488.75;;;24.83;44.63
23619;BME280;18207;32.078;34.818;2023-12-14T00:53:59;101491.56;;;24.83;44.80
23619;BME280;18207;32.078;34.818;2023-12-14T00:56:30;101487.59;;;24.84;44.65
23619;BME280;18207;32.078;34.818;2023-12-14T00:59:01;101488.38;;;24.84;44.61
23619;BME280;18207;32.078;34.818;2023-12-14T01:01:31;101487.59;;;24.84;44.97
23619;BME280;18207;32.078;34.818;2023-12-14T01:04:01;101487.59;;;24.84;44.84
23619;BME280;18207;32.078;34.818;2023-12-14T01:06:34;101490.41;;;24.84;44.72
23619;BME280;18207;32.078;34.818;2023-12-14T01:09:04;101484.78;;;24.84;44.82
23619;BME280;18207;32.078;34.818;2023-12-14T01:11:34;101481.13;;;24.83;44.71
23619;BME280;18207;32.078;34.818;2023-12-14T01:14:04;101475.50;;;24.83;44.76
23619;BME280;18207;32.078;34.818;2023-12-14T01:16:34;101486.75;;;24.83;44.97
23619;BME280;18207;32.078;34.818;2023-12-14T01:19:05;101489.56;;;24.83;44.66
23619;BME280;18207;32.078;34.818;2023-12-14T01:21:37;101486.75;;;24.83;44.91
23619;BME280;18207;32.078;34.818;2023-12-14T01:24:06;101483.47;;;24.81;44.68
23619;BME280;18207;32.078;34.818;2023-12-14T01:26:37;101488.63;;;24.79;44.62
23619;BME280;18207;32.078;34.818;2023-12-14T01:29:06;101489.78;;;24.78;44.85
23619;BME280;18207;32.078;34.818;2023-12-14T01:31:36;101487.66;;;24.75;44.78
23619;BME280;18207;32.078;34.818;2023-12-14T01:34:06;101488.34;;;24.72;44.82
23619;BME280;18207;32.078;34.818;2023-12-14T01:36:39;101478.63;;;24.70;44.86
23619;BME280;18207;32.078;34.818;2023-12-14T01:39:09;101487.75;;;24.67;44.74
23619;BME280;18207;32.078;34.818;2023-12-14T01:41:39;101484.47;;;24.65;44.93
23619;BME280;18207;32.078;34.818;2023-12-14T01:44:09;101492.06;;;24.64;45.09
23619;BME280;18207;32.078;34.818;2023-12-14T01:46:39;101493.22;;;24.63;45.06
23619;BME280;18207;32.078;34.818;2023-12-14T01:49:09;101493.59;;;24.62;45.04
23619;BME280;18207;32.078;34.818;2023-12-14T01:51:40;101496.41;;;24.62;45.09
23619;BME280;18207;32.078;34.818;2023-12-14T01:54:11;101486.66;;;24.59;45.06
23619;BME280;18207;32.078;34.818;2023-12-14T01:56:41;101485.84;;;24.59;45.52
23619;BME280;18207;32.078;34.818;2023-12-14T01:59:11;101484.19;;;24.58;45.07
23619;BME280;18207;32.078;34.818;2023-12-14T02:01:45;101487.84;;;24.58;45.07
23619;BME280;18207;32.078;34.818;2023-12-14T02:04:15;101488.50;;;24.55;44.96
23619;BME280;18207;32.078;34.818;2023-12-14T02:06:47;101486.06;;;24.54;45.00
23619;BME280;18207;32.078;34.818;2023-12-14T02:09:17;101492.00;;;24.52;45.08
23619;BME280;18207;32.078;34.818;2023-12-14T02:11:47;101490.38;;;24.51;45.14
23619;BME280;18207;32.078;34.818;2023-12-14T02:14:17;101489.91;;;24.49;45.02
23619;BME280;18207;32.078;34.818;2023-12-14T02:16:47;101496.69;;;24.48;45.18
23619;BME280;18207;32.078;34.818;2023-12-14T02:19:17;101495.84;;;24.48;45.00
23619;BME280;18207;32.078;34.818;2023-12-14T02:21:49;101503.81;;;24.46;45.09
23619;BME280;18207;32.078;34.818;2023-12-14T02:24:21;101505.00;;;24.45;45.06
23619;BME280;18207;32.078;34.818;2023-12-14T02:26:51;101510.91;;;24.43;45.31
23619;BME280;18207;32.078;34.818;2023-12-14T02:29:30;101510.09;;;24.43;45.24
23619;BME280;18207;32.078;34.818;2023-12-14T02:32:00;101512.91;;;24.43;45.13
23619;BME280;18207;32.078;34.818;2023-12-14T02:34:30;101510.09;;;24.43;45.44
23619;BME280;18207;32.078;34.818;2023-12-14T02:37:00;101518.53;;;24.43;45.15
23619;BME280;18207;32.078;34.818;2023-12-14T02:39:33;101512.09;;;24.42;45.24
23619;BME280;18207;32.078;34.818;2023-12-14T02:42:02;101517.72;;;24.42;45.32
23619;BME280;18207;32.078;34.818;2023-12-14T02:44:32;101518.88;;;24.41;45.22
23619;BME280;18207;32.078;34.818;2023-12-14T02:47:02;101542.16;;;24.42;45.25
23619;BME280;18207;32.078;34.818;2023-12-14T02:49:32;101537.69;;;24.41;45.31
23619;BME280;18207;32.078;34.818;2023-12-14T02:52:03;101522.84;;;24.40;45.25
23619;BME280;18207;32.078;34.818;2023-12-14T02:54:36;101532.44;;;24.39;45.59
23619;BME280;18207;32.078;34.818;2023-12-14T02:57:06;101532.75;;;24.38;45.45
23619;BME280;18207;32.078;34.818;2023-12-14T02:59:35;101529.50;;;24.36;45.48
23619;BME280;18207;32.078;34.818;2023-12-14T03:02:05;101537.09;;;24.35;45.29
23619;BME280;18207;32.078;34.818;2023-12-14T03:04:38;101527.84;;;24.35;45.46
23619;BME280;18207;32.078;34.818;2023-12-14T03:07:08;101534.97;;;24.32;45.66
23619;BME280;18207;32.078;34.818;2023-12-14T03:09:41;101531.34;;;24.32;45.24
23619;BME280;18207;32.078;34.818;2023-12-14T03:12:12;101527.22;;;24.29;45.16
23619;BME280;18207;32.078;34.818;2023-12-14T03:14:42;101531.56;;;24.27;45.44
23619;BME280;18207;32.078;34.818;2023-12-14T03:17:12;101534.34;;;24.27;45.46
23619;BME280;18207;32.078;34.818;2023-12-14T03:19:43;101541.81;;;24.23;45.38
23619;BME280;18207;32.078;34.818;2023-12-14T03:22:15;101548.59;;;24.22;45.47
23619;BME280;18207;32.078;34.818;2023-12-14T03:24:47;101546.13;;;24.20;45.52
23619;BME280;18207;32.078;34.818;2023-12-14T03:27:17;101549.63;;;24.17;45.19
23619;BME280;18207;32.078;34.818;2023-12-14T03:29:48;101550.44;;;24.18;45.48
23619;BME280;18207;32.078;34.818;2023-12-14T03:32:18;101556.06;;;24.18;45.66
23619;BME280;18207;32.078;34.818;2023-12-14T03:34:48;101564.50;;;24.18;45.69
23619;BME280;18207;32.078;34.818;2023-12-14T03:37:18;101562.50;;;24.18;45.72
23619;BME280;18207;32.078;34.818;2023-12-14T03:39:48;101558.03;;;24.17;45.32
23619;BME280;18207;32.078;34.818;2023-12-14T03:42:19;101564.00;;;24.16;45.75
23619;BME280;18207;32.078;34.818;2023-12-14T03:44:49;101567.97;;;24.15;45.46
23619;BME280;18207;32.078;34.818;2023-12-14T03:47:19;101565.16;;;24.15;45.55
23619;BME280;18207;32.078;34.818;2023-12-14T03:49:49;101567.13;;;24.15;45.43
23619;BME280;18207;32.078;34.818;2023-12-14T03:52:19;101570.78;;;24.15;45.66
23619;BME280;18207;32.078;34.818;2023-12-14T03:54:51;101575.09;;;24.13;45.65
23619;BME280;18207;32.078;34.818;2023-12-14T03:57:20;101572.63;;;24.11;45.68
23619;BME280;18207;32.078;34.818;2023-12-14T03:59:50;101587.00;;;24.10;45.64
23619;BME280;18207;32.078;34.818;2023-12-14T04:02:20;101594.59;;;24.09;45.70
23619;BME280;18207;32.078;34.818;2023-12-14T04:04:51;101594.59;;;24.09;45.61
23619;BME280;18207;32.078;34.818;2023-12-14T04:07:21;101584.88;;;24.07;45.78
23619;BME280;18207;32.078;34.818;2023-12-14T04:09:52;101598.91;;;24.07;45.71
23619;BME280;18207;32.078;34.818;2023-12-14T04:12:23;101599.25;;;24.05;45.81
23619;BME280;18207;32.078;34.818;2023-12-14T04:14:52;101595.59;;;24.05;45.74
23619;BME280;18207;32.078;34.818;2023-12-14T04:17:22;101599.56;;;24.04;45.72
23619;BME280;18207;32.078;34.818;2023-12-14T04:19:52;101595.16;;;24.03;45.56
23619;BME280;18207;32.078;34.818;2023-12-14T04:22:22;101602.72;;;24.02;45.71
23619;BME280;18207;32.078;34.818;2023-12-14T04:24:54;101604.72;;;24.02;45.75
23619;BME280;18207;32.078;34.818;2023-12-14T04:27:24;101603.91;;;24.01;46.19
23619;BME280;18207;32.078;34.818;2023-12-14T04:29:56;101611.16;;;24.02;45.88
23619;BME280;18207;32.078;34.818;2023-12-14T04:32:27;101612.00;;;24.03;45.79
23619;BME280;18207;32.078;34.818;2023-12-14T04:34:57;101613.16;;;24.02;45.93
23619;BME280;18207;32.078;34.818;2023-12-14T04:37:26;101608.69;;;24.01;46.00
23619;BME280;18207;32.078;34.818;2023-12-14T04:39:58;101603.91;;;24.01;46.08
23619;BME280;18207;32.078;34.818;2023-12-14T04:42:29;101614.63;;;23.99;45.95
23619;BME280;18207;32.078;34.818;2023-12-14T04:44:59;101623.06;;;23.99;46.10
23619;BME280;18207;32.078;34.818;2023-12-14T04:47:28;101620.59;;;23.98;45.75
23619;BME280;18207;32.078;34.818;2023-12-14T04:49:59;101622.59;;;23.97;46.09
23619;BME280;18207;32.078;34.818;2023-12-14T04:52:29;101631.81;;;23.98;46.08
23619;BME280;18207;32.078;34.818;2023-12-14T04:55:00;101629.50;;;24.00;46.18
23619;BME280;18207;32.078;34.818;2023-12-14T04:57:30;101627.88;;;23.99;45.87
23619;BME280;18207;32.078;34.818;2023-12-14T04:59:59;101626.72;;;24.00;45.93
23619;BME280;18207;32.078;34.818;2023-12-14T05:02:28;101633.97;;;24.01;45.94
23619;BME280;18207;32.078;34.818;2023-12-14T05:04:58;101631.97;;;24.01;46.46
23619;BME280;18207;32.078;34.818;2023-12-14T05:07:28;101636.78;;;24.01;45.98
23619;BME280;18207;32.078;34.818;2023-12-14T05:10:00;101641.25;;;24.02;46.02
23619;BME280;18207;32.078;34.818;2023-12-14T05:12:31;101646.00;;;24.01;46.30
23619;BME280;18207;32.078;34.818;2023-12-14T05:15:01;101653.28;;;24.02;46.03
23619;BME280;18207;32.078;34.818;2023-12-14T05:17:31;101651.31;;;24.03;46.12
23619;BME280;18207;32.078;34.818;2023-12-14T05:20:01;101654.13;;;24.03;46.06
23619;BME280;18207;32.078;34.818;2023-12-14T05:22:31;101657.75;;;24.03;46.27
23619;BME280;18207;32.078;34.818;2023-12-14T05:25:04;101662.19;;;24.04;46.40
23619;BME280;18207;32.078;34.818;2023-12-14T05:27:34;101663.84;;;24.05;46.31
23619;BME280;18207;32.078;34.818;2023-12-14T05:30:05;101662.69;;;24.06;46.21
23619;BME280;18207;32.078;34.818;2023-12-14T05:32:35;101665.16;;;24.08;46.38
23619;BME280;18207;32.078;34.818;2023-12-14T05:35:07;101664.00;;;24.09;46.28
23619;BME280;18207;32.078;34.818;2023-12-14T05:37:39;101665.66;;;24.10;46.14
23619;BME280;18207;32.078;34.818;2023-12-14T05:40:12;101674.56;;;24.12;46.20
23619;BME280;18207;32.078;34.818;2023-12-14T05:42:42;101682.16;;;24.11;46.29
23619;BME280;18207;32.078;34.818;2023-12-14T05:45:12;101675.72;;;24.11;46.50
23619;BME280;18207;32.078;34.818;2023-12-14T05:47:42;101676.22;;;24.13;46.33
23619;BME280;18207;32.078;34.818;2023-12-14T05:50:11;101674.56;;;24.12;46.11
23619;BME280;18207;32.078;34.818;2023-12-14T05:52:42;101677.38;;;24.12;46.25
23619;BME280;18207;32.078;34.818;2023-12-14T05:55:16;101683.44;;;24.14;46.43
23619;BME280;18207;32.078;34.818;2023-12-14T05:57:49;101680.66;;;24.14;46.53
23619;BME280;18207;32.078;34.818;2023-12-14T06:00:20;101685.94;;;24.15;46.41
23619;BME280;18207;32.078;34.818;2023-12-14T06:02:49;101682.78;;;24.17;46.26
23619;BME280;18207;32.078;34.818;2023-12-14T06:05:20;101692.88;;;24.17;46.65
23619;BME280;18207;32.078;34.818;2023-12-14T06:07:50;101689.38;;;24.20;46.46
23619;BME280;18207;32.078;34.818;2023-12-14T06:10:23;101703.22;;;24.25;46.56
23619;BME280;18207;32.078;34.818;2023-12-14T06:12:53;101696.59;;;24.30;46.82
23619;BME280;18207;32.078;34.818;2023-12-14T06:15:23;101698.41;;;24.34;46.67
23619;BME280;18207;32.078;34.818;2023-12-14T06:17:53;101707.13;;;24.41;46.87
23619;BME280;18207;32.078;34.818;2023-12-14T06:20:23;101710.63;;;24.47;46.69
23619;BME280;18207;32.078;34.818;2023-12-14T06:22:54;101713.56;;;24.50;46.94
23619;BME280;18207;32.078;34.818;2023-12-14T06:25:26;101715.00;;;24.56;46.55
23619;BME280;18207;32.078;34.818;2023-12-14T06:27:55;101726.22;;;24.65;46.80
23619;BME280;18207;32.078;34.818;2023-12-14T06:30:25;101718.56;;;24.74;46.85
23619;BME280;18207;32.078;34.818;2023-12-14T06:32:55;101728.69;;;24.87;47.00
23619;BME280;18207;32.078;34.818;2023-12-14T06:35:26;101724.50;;;25.01;46.97
23619;BME280;18207;32.078;34.818;2023-12-14T06:37:54;101724.25;;;25.14;47.14
23619;BME280;18207;32.078;34.818;2023-12-14T06:40:26;101730.09;;;25.30;47.03
23619;BME280;18207;32.078;34.818;2023-12-14T06:42:56;101735.91;;;25.45;47.01
23619;BME280;18207;32.078;34.818;2023-12-14T06:45:26;101731.63;;;25.60;46.93
23619;BME280;18207;32.078;34.818;2023-12-14T06:47:56;101729.81;;;25.76;46.96
23619;BME280;18207;32.078;34.818;2023-12-14T06:50:26;101733.16;;;25.90;46.97
23619;BME280;18207;32.078;34.818;2023-12-14T06:52:56;101746.22;;;26.06;46.99
23619;BME280;18207;32.078;34.818;2023-12-14T06:55:28;101743.91;;;26.20;46.70
23619;BME280;18207;32.078;34.818;2023-12-14T06:57:58;101750.38;;;26.32;46.69
23619;BME280;18207;32.078;34.818;2023-12-14T07:00:28;101746.66;;;26.40;46.81
23619;BME280;18207;32.078;34.818;2023-12-14T07:02:58;101745.41;;;26.50;47.00
23619;BME280;18207;32.078;34.818;2023-12-14T07:05:28;101759.03;;;26.60;46.61
23619;BME280;18207;32.078;34.818;2023-12-14T07:07:58;101754.19;;;26.72;46.62
23619;BME280;18207;32.078;34.818;2023-12-14T07:10:30;101764.31;;;26.85;46.86
23619;BME280;18207;32.078;34.818;2023-12-14T07:13:00;101764.16;;;26.93;46.49
23619;BME280;18207;32.078;34.818;2023-12-14T07:15:30;101766.91;;;27.02;46.41
23619;BME280;18207;32.078;34.818;2023-12-14T07:18:00;101766.44;;;27.12;46.26
23619;BME280;18207;32.078;34.818;2023-12-14T07:20:30;101768.38;;;27.23;46.71
23619;BME280;18207;32.078;34.818;2023-12-14T07:23:00;101763.09;;;27.34;46.58
23619;BME280;18207;32.078;34.818;2023-12-14T07:25:32;101776.34;;;27.45;46.60
23619;BME280;18207;32.078;34.818;2023-12-14T07:28:02;101773.72;;;27.52;46.35
23619;BME280;18207;32.078;34.818;2023-12-14T07:30:32;101772.63;;;27.57;46.08
23619;BME280;18207;32.078;34.818;2023-12-14T07:33:02;101776.78;;;27.59;46.33
23619;BME280;18207;32.078;34.818;2023-12-14T07:35:34;101767.13;;;27.60;46.34
23619;BME280;18207;32.078;34.818;2023-12-14T07:38:04;101776.53;;;27.64;46.16
23619;BME280;18207;32.078;34.818;2023-12-14T07:40:36;101771.81;;;27.68;45.88
23619;BME280;18207;32.078;34.818;2023-12-14T07:43:06;101767.56;;;27.74;45.97
23619;BME280;18207;32.078;34.818;2023-12-14T07:45:36;101772.69;;;27.84;46.25
23619;BME280;18207;32.078;34.818;2023-12-14T07:48:06;101774.63;;;27.95;46.16
23619;BME280;18207;32.078;34.818;2023-12-14T07:50:36;101779.41;;;28.07;46.07
23619;BME280;18207;32.078;34.818;2023-12-14T07:53:06;101764.38;;;28.18;46.30
23619;BME280;18207;32.078;34.818;2023-12-14T07:55:39;101759.47;;;28.31;45.87
23619;BME280;18207;32.078;34.818;2023-12-14T07:58:10;101764.59;;;28.41;45.95
23619;BME280;18207;32.078;34.818;2023-12-14T08:00:41;101763.16;;;28.47;46.13
23619;BME280;18207;32.078;34.818;2023-12-14T08:03:10;101765.69;;;28.52;45.38
23619;BME280;18207;32.078;34.818;2023-12-14T08:05:40;101758.94;;;28.56;45.45
23619;BME280;18207;32.078;34.818;2023-12-14T08:08:10;101755.00;;;28.61;46.01
23619;BME280;18207;32.078;34.818;2023-12-14T08:10:42;101759.94;;;28.63;45.68
23619;BME280;18207;32.078;34.818;2023-12-14T08:13:12;101768.91;;;28.65;45.89
23619;BME280;18207;32.078;34.818;2023-12-14T08:15:41;101763.72;;;28.67;45.65
23619;BME280;18207;32.078;34.818;2023-12-14T08:18:11;101771.09;;;28.72;45.51
23619;BME280;18207;32.078;34.818;2023-12-14T08:20:41;101761.13;;;28.78;45.40
23619;BME280;18207;32.078;34.818;2023-12-14T08:23:11;101754.47;;;28.86;45.60
23619;BME280;18207;32.078;34.818;2023-12-14T08:25:43;101755.09;;;28.95;45.50
23619;BME280;18207;32.078;34.818;2023-12-14T08:28:13;101752.88;;;29.04;45.21
23619;BME280;18207;32.078;34.818;2023-12-14T08:30:43;101753.94;;;29.15;45.79
23619;BME280;18207;32.078;34.818;2023-12-14T08:33:13;101751.38;;;29.25;45.24
23619;BME280;18207;32.078;34.818;2023-12-14T08:35:44;101751.97;;;29.34;45.36
23619;BME280;18207;32.078;34.818;2023-12-14T08:38:14;101745.31;;;29.42;45.02
23619;BME280;18207;32.078;34.818;2023-12-14T08:40:46;101744.63;;;29.49;44.87
23619;BME280;18207;32.078;34.818;2023-12-14T08:43:16;101745.53;;;29.52;44.70
23619;BME280;18207;32.078;34.818;2023-12-14T08:45:46;101743.97;;;29.55;44.69
23619;BME280;18207;32.078;34.818;2023-12-14T08:48:16;101735.09;;;29.56;44.96
23619;BME280;18207;32.078;34.818;2023-12-14T08:50:46;101735.03;;;29.53;44.63
23619;BME280;18207;32.078;34.818;2023-12-14T08:53:17;101736.16;;;29.49;44.66
23619;BME280;18207;32.078;34.818;2023-12-14T08:55:49;101736.81;;;29.42;44.67
23619;BME280;18207;32.078;34.818;2023-12-14T08:58:18;101730.97;;;29.35;44.01
23619;BME280;18207;32.078;34.818;2023-12-14T09:00:48;101729.59;;;29.29;44.24
23619;BME280;18207;32.078;34.818;2023-12-14T09:03:21;101727.88;;;29.25;44.12
23619;BME280;18207;32.078;34.818;2023-12-14T09:05:51;101735.03;;;29.19;44.34
23619;BME280;18207;32.078;34.818;2023-12-14T09:08:21;101729.31;;;29.15;44.40
23619;BME280;18207;32.078;34.818;2023-12-14T09:10:53;101729.22;;;29.12;44.58
23619;BME280;18207;32.078;34.818;2023-12-14T09:13:23;101713.34;;;29.07;44.25
23619;BME280;18207;32.078;34.818;2023-12-14T09:15:53;101711.25;;;29.04;44.26
23619;BME280;18207;32.078;34.818;2023-12-14T09:18:22;101710.34;;;29.00;44.52
23619;BME280;18207;32.078;34.818;2023-12-14T09:20:52;101709.00;;;28.94;44.00
23619;BME280;18207;32.078;34.818;2023-12-14T09:23:22;101697.94;;;28.89;44.41
23619;BME280;18207;32.078;34.818;2023-12-14T09:25:54;101699.06;;;28.85;44.53
23619;BME280;18207;32.078;34.818;2023-12-14T09:28:24;101700.16;;;28.80;44.23
23619;BME280;18207;32.078;34.818;2023-12-14T09:30:54;101688.72;;;28.77;44.23
23619;BME280;18207;32.078;34.818;2023-12-14T09:33:24;101692.66;;;28.72;44.46
23619;BME280;18207;32.078;34.818;2023-12-14T09:35:57;101685.66;;;28.66;44.30
23619;BME280;18207;32.078;34.818;2023-12-14T09:38:27;101687.56;;;28.63;44.34
23619;BME280;18207;32.078;34.818;2023-12-14T09:41:04;101683.47;;;28.60;44.28
23619;BME280;18207;32.078;34.818;2023-12-14T09:43:43;101676.09;;;28.56;44.08
23619;BME280;18207;32.078;34.818;2023-12-14T09:46:18;101670.38;;;28.52;44.55
23619;BME280;18207;32.078;34.818;2023-12-14T09:48:57;101676.75;;;28.49;44.14
23619;BME280;18207;32.078;34.818;2023-12-14T09:51:32;101675.47;;;28.47;44.26
23619;BME280;18207;32.078;34.818;2023-12-14T09:54:02;101676.19;;;28.44;44.09
23619;BME280;18207;32.078;34.818;2023-12-14T09:56:33;101673.75;;;28.42;44.28
23619;BME280;18207;32.078;34.818;2023-12-14T09:59:03;101666.38;;;28.38;44.06
23619;BME280;18207;32.078;34.818;2023-12-14T10:01:35;101667.91;;;28.35;43.96
23619;BME280;18207;32.078;34.818;2023-12-14T10:04:10;101661.81;;;28.33;44.00
23619;BME280;18207;32.078;34.818;2023-12-14T10:06:43;101651.22;;;28.30;43.81
23619;BME280;18207;32.078;34.818;2023-12-14T10:09:14;101661.28;;;28.28;43.91
23619;BME280;18207;32.078;34.818;2023-12-14T10:11:49;101659.97;;;28.25;43.81
23619;BME280;18207;32.078;34.818;2023-12-14T10:14:30;101650.22;;;28.23;44.20
23619;BME280;18207;32.078;34.818;2023-12-14T10:17:16;101649.41;;;28.22;44.11
23619;BME280;18207;32.078;34.818;2023-12-14T10:19:47;101641.63;;;28.19;44.18
23619;BME280;18207;32.078;34.818;2023-12-14T10:22:17;101634.31;;;28.18;44.06
23619;BME280;18207;32.078;34.818;2023-12-14T10:24:48;101635.50;;;28.17;44.06
23619;BME280;18207;32.078;34.818;2023-12-14T10:27:22;101636.69;;;28.16;44.07
23619;BME280;18207;32.078;34.818;2023-12-14T10:29:58;101641.06;;;28.14;44.00
23619;BME280;18207;32.078;34.818;2023-12-14T10:32:34;101633.78;;;28.13;44.03
23619;BME280;18207;32.078;34.818;2023-12-14T10:35:07;101635.34;;;28.10;43.59
23619;BME280;18207;32.078;34.818;2023-12-14T10:37:38;101625.59;;;28.08;43.43
23619;BME280;18207;32.078;34.818;2023-12-14T10:40:10;101620.28;;;28.06;44.09
23619;BME280;18207;32.078;34.818;2023-12-14T10:43:01;101630.78;;;28.06;43.78
23619;BME280;18207;32.078;34.818;2023-12-14T10:45:34;101620.19;;;28.03;43.91
23619;BME280;18207;32.078;34.818;2023-12-14T10:48:05;101626.22;;;28.01;43.91
23619;BME280;18207;32.078;34.818;2023-12-14T10:50:36;101625.38;;;28.01;44.12
23619;BME280;18207;32.078;34.818;2023-12-14T10:53:07;101625.75;;;27.99;43.42
23619;BME280;18207;32.078;34.818;2023-12-14T10:55:42;101620.94;;;28.00;43.38
23619;BME280;18207;32.078;34.818;2023-12-14T10:58:14;101614.00;;;27.97;43.49
23619;BME280;18207;32.078;34.818;2023-12-14T11:00:46;101613.53;;;27.95;43.74
23619;BME280;18207;32.078;34.818;2023-12-14T11:03:30;101605.44;;;27.94;43.64
23619;BME280;18207;32.078;34.818;2023-12-14T11:06:02;101613.09;;;27.93;43.78
23619;BME280;18207;32.078;34.818;2023-12-14T11:08:44;101611.47;;;27.92;43.55
23619;BME280;18207;32.078;34.818;2023-12-14T11:11:16;101610.63;;;27.92;43.48
23619;BME280;18207;32.078;34.818;2023-12-14T11:13:53;101615.47;;;27.91;43.78
23619;BME280;18207;32.078;34.818;2023-12-14T11:16:26;101616.66;;;27.90;43.81
23619;BME280;18207;32.078;34.818;2023-12-14T11:19:28;101615.84;;;27.90;43.40
23619;BME280;18207;32.078;34.818;2023-12-14T11:22:24;101609.72;;;27.88;43.73
23619;BME280;18207;32.078;34.818;2023-12-14T11:24:55;101611.25;;;27.85;43.98
23619;BME280;18207;32.078;34.818;2023-12-14T11:27:29;101609.25;;;27.86;43.53
23619;BME280;18207;32.078;34.818;2023-12-14T11:30:03;101622.56;;;27.85;44.07
23619;BME280;18207;32.078;34.818;2023-12-14T11:32:35;101624.56;;;27.85;43.82
23619;BME280;18207;32.078;34.818;2023-12-14T11:35:06;101622.13;;;27.83;43.52
23619;BME280;18207;32.078;34.818;2023-12-14T11:37:40;101622.13;;;27.83;43.89
23619;BME280;18207;32.078;34.818;2023-12-14T11:40:11;101620.47;;;27.82;43.92
23619;BME280;18207;32.078;34.818;2023-12-14T11:42:44;101610.34;;;27.81;43.31
23619;BME280;18207;32.078;34.818;2023-12-14T11:45:16;101615.19;;;27.81;43.75
23619;BME280;18207;32.078;34.818;2023-12-14T11:47:46;101617.91;;;27.77;43.63
23619;BME280;18207;32.078;34.818;2023-12-14T11:50:16;101617.09;;;27.77;43.83
23619;BME280;18207;32.078;34.818;2023-12-14T11:52:46;101621.09;;;27.76;43.53
23619;BME280;18207;32.078;34.818;2023-12-14T11:55:17;101617.44;;;27.75;43.65
23619;BME280;18207;32.078;34.818;2023-12-14T11:57:49;101623.47;;;27.74;43.66
23619;BME280;18207;32.078;34.818;2023-12-14T12:00:24;101626.66;;;27.73;43.57
23619;BME280;18207;32.078;34.818;2023-12-14T12:03:09;101627.00;;;27.71;43.31
23619;BME280;18207;32.078;34.818;2023-12-14T12:05:41;101622.91;;;27.69;43.45
23619;BME280;18207;32.078;34.818;2023-12-14T12:08:13;101627.75;;;27.68;43.57
23619;BME280;18207;32.078;34.818;2023-12-14T12:10:44;101631.75;;;27.67;43.75
23619;BME280;18207;32.078;34.818;2023-12-14T12:13:16;101635.41;;;27.68;43.87
23619;BME280;18207;32.078;34.818;2023-12-14T12:15:48;101634.59;;;27.67;43.82
23619;BME280;18207;32.078;34.818;2023-12-14T12:18:18;101634.13;;;27.65;43.72
23619;BME280;18207;32.078;34.818;2023-12-14T12:20:48;101636.47;;;27.63;43.70
23619;BME280;18207;32.078;34.818;2023-12-14T12:23:18;101639.31;;;27.63;43.81
23619;BME280;18207;32.078;34.818;2023-12-14T12:25:48;101637.63;;;27.62;43.54
23619;BME280;18207;32.078;34.818;2023-12-14T12:28:18;101648.50;;;27.60;43.59
23619;BME280;18207;32.078;34.818;2023-12-14T12:30:49;101632.72;;;27.59;43.70
23619;BME280;18207;32.078;34.818;2023-12-14T12:33:19;101635.56;;;27.59;43.39
23619;BME280;18207;32.078;34.818;2023-12-14T12:35:49;101638.72;;;27.58;43.75
23619;BME280;18207;32.078;34.818;2023-12-14T12:38:18;101637.06;;;27.57;43.61
23619;BME280;18207;32.078;34.818;2023-12-14T12:40:48;101643.94;;;27.56;43.61
23619;BME280;18207;32.078;34.818;2023-12-14T12:43:25;101641.91;;;27.56;43.77
23619;BME280;18207;32.078;34.818;2023-12-14T12:45:57;101641.09;;;27.56;44.01
23619;BME280;18207;32.078;34.818;2023-12-14T12:48:27;101645.91;;;27.55;43.36
23619;BME280;18207;32.078;34.818;2023-12-14T12:50:58;101647.09;;;27.54;43.66
23619;BME280;18207;32.078;34.818;2023-12-14T12:53:28;101651.94;;;27.54;43.82
23619;BME280;18207;32.078;34.818;2023-12-14T12:55:59;101650.75;;;27.55;43.49
23619;BME280;18207;32.078;34.818;2023-12-14T12:58:30;101641.81;;;27.53;43.66
23619;BME280;18207;32.078;34.818;2023-12-14T13:01:06;101647.47;;;27.53;43.83
23619;BME280;18207;32.078;34.818;2023-12-14T13:03:36;101645.81;;;27.52;43.70